Redland, Oregon
Current Conditions -  °F | °C
As of 7:53 AM on Wednesday 22 Oct 2014 (Local Time) from KUAO Reporting Station
Light Rain Light Rain  
Wind Chill: 57°   Ceiling: 9500
Heat Index: 57°   Visibility: 10mi
Dew Point: 53°   Wind: 12mph
Humidity: 87%   Direction: 200°SSW
Pressure: 29.79"   Gusts: NA
Location:  45.3306°N, 122.529°W
Report Text: KUAO 221453Z AUTO 20010KT 10SM -RA FEW070 OVC095 14/12 A2979 RMK AO2 SLP087 P0004 60006 T01390117 58001
Loading
Personal Weather Stations






























Interactive Weather Map
Tropical Storm Tracking
New forecast layout! Learn more

10-Day Weather Forecast

Advertisements
Track Severe Weather on mobile